< < Back
Terminal Aerodrome Forecast


Current Version              Previous Versions:   1  2  3  4  5  6  7  8  9  

Terminal Aerodrome Forecast

798
FTUS42 KGSP 181700
TAFAVL
TAF
KAVL 181736Z 1818/1918 36003KT P6SM OVC110
     FM182100 01007KT P6SM -RA OVC050
     FM190200 36007KT 4SM RA BR OVC018
     FM191300 36010KT P6SM -RA OVC008=

Latest METAR

231
SAUS70 KWBC 191400 RRP
MTRAVL
METAR KAVL 191354Z 35004KT 4SM -RA BR FEW011 BKN028 OVC040 10/09 A3019
RMK AO2 SLP219 P0006 T01000089


USA.gov is the U.S. government's official web portal to all federal, state and local government web resources and services.